sensor_id;sensor_type;location;lat;lon;timestamp;P1;durP1;ratioP1;P2;durP2;ratioP2
54699;SDS011;40599;53.132;6.090;2023-03-23T00:02:05;19.50;;;14.30;;
54699;SDS011;40599;53.132;6.090;2023-03-23T00:04:32;16.00;;;13.18;;
54699;SDS011;40599;53.132;6.090;2023-03-23T00:06:58;17.65;;;12.45;;
54699;SDS011;40599;53.132;6.090;2023-03-23T00:09:28;17.75;;;14.32;;
54699;SDS011;40599;53.132;6.090;2023-03-23T00:11:55;19.38;;;15.57;;
54699;SDS011;40599;53.132;6.090;2023-03-23T00:16:48;26.23;;;18.55;;
54699;SDS011;40599;53.132;6.090;2023-03-23T00:19:15;28.77;;;21.17;;
54699;SDS011;40599;53.132;6.090;2023-03-23T00:21:44;31.52;;;22.92;;
54699;SDS011;40599;53.132;6.090;2023-03-23T00:24:11;31.20;;;22.90;;
54699;SDS011;40599;53.132;6.090;2023-03-23T00:26:41;34.35;;;24.73;;
54699;SDS011;40599;53.132;6.090;2023-03-23T00:29:15;32.65;;;24.77;;
54699;SDS011;40599;53.132;6.090;2023-03-23T00:31:42;33.00;;;25.33;;
54699;SDS011;40599;53.132;6.090;2023-03-23T00:34:12;33.80;;;25.88;;
54699;SDS011;40599;53.132;6.090;2023-03-23T00:36:38;38.42;;;25.33;;
54699;SDS011;40599;53.132;6.090;2023-03-23T00:39:08;36.78;;;25.60;;
54699;SDS011;40599;53.132;6.090;2023-03-23T00:41:34;37.75;;;25.52;;
54699;SDS011;40599;53.132;6.090;2023-03-23T00:46:27;30.60;;;23.33;;
54699;SDS011;40599;53.132;6.090;2023-03-23T00:48:54;25.35;;;19.35;;
54699;SDS011;40599;53.132;6.090;2023-03-23T00:51:22;27.25;;;18.65;;
54699;SDS011;40599;53.132;6.090;2023-03-23T00:53:48;20.80;;;14.65;;
54699;SDS011;40599;53.132;6.090;2023-03-23T00:56:14;26.02;;;15.57;;
54699;SDS011;40599;53.132;6.090;2023-03-23T00:58:41;15.73;;;12.00;;
54699;SDS011;40599;53.132;6.090;2023-03-23T01:01:07;16.88;;;12.73;;
54699;SDS011;40599;53.132;6.090;2023-03-23T01:03:34;15.43;;;12.55;;
54699;SDS011;40599;53.132;6.090;2023-03-23T01:06:05;16.02;;;11.93;;
54699;SDS011;40599;53.132;6.090;2023-03-23T01:08:33;13.25;;;11.30;;
54699;SDS011;40599;53.132;6.090;2023-03-23T01:11:05;13.52;;;11.52;;
54699;SDS011;40599;53.132;6.090;2023-03-23T01:13:31;15.60;;;11.52;;
54699;SDS011;40599;53.132;6.090;2023-03-23T01:15:58;14.95;;;12.00;;
54699;SDS011;40599;53.132;6.090;2023-03-23T01:18:24;16.60;;;11.88;;
54699;SDS011;40599;53.132;6.090;2023-03-23T01:20:50;14.38;;;12.73;;
54699;SDS011;40599;53.132;6.090;2023-03-23T01:23:16;17.23;;;12.68;;
54699;SDS011;40599;53.132;6.090;2023-03-23T01:25:43;14.63;;;12.73;;
54699;SDS011;40599;53.132;6.090;2023-03-23T01:28:10;19.27;;;13.02;;
54699;SDS011;40599;53.132;6.090;2023-03-23T01:30:37;15.18;;;13.15;;
54699;SDS011;40599;53.132;6.090;2023-03-23T01:33:03;18.63;;;12.43;;
54699;SDS011;40599;53.132;6.090;2023-03-23T01:35:29;16.10;;;12.88;;
54699;SDS011;40599;53.132;6.090;2023-03-23T01:37:55;17.40;;;12.98;;
54699;SDS011;40599;53.132;6.090;2023-03-23T01:40:21;23.25;;;13.35;;
54699;SDS011;40599;53.132;6.090;2023-03-23T01:42:47;19.75;;;12.25;;
54699;SDS011;40599;53.132;6.090;2023-03-23T01:47:46;22.08;;;17.73;;
54699;SDS011;40599;53.132;6.090;2023-03-23T01:50:13;18.85;;;16.80;;
54699;SDS011;40599;53.132;6.090;2023-03-23T01:52:39;17.02;;;12.32;;
54699;SDS011;40599;53.132;6.090;2023-03-23T01:55:06;19.25;;;12.55;;
54699;SDS011;40599;53.132;6.090;2023-03-23T01:57:32;18.42;;;12.00;;
54699;SDS011;40599;53.132;6.090;2023-03-23T02:00:01;19.00;;;12.05;;
54699;SDS011;40599;53.132;6.090;2023-03-23T02:02:33;21.08;;;12.60;;
54699;SDS011;40599;53.132;6.090;2023-03-23T02:05:02;20.38;;;12.05;;
54699;SDS011;40599;53.132;6.090;2023-03-23T02:07:30;19.67;;;12.80;;
54699;SDS011;40599;53.132;6.090;2023-03-23T02:09:57;16.67;;;12.45;;
54699;SDS011;40599;53.132;6.090;2023-03-23T02:12:24;18.48;;;12.40;;
54699;SDS011;40599;53.132;6.090;2023-03-23T02:14:51;16.23;;;11.45;;
54699;SDS011;40599;53.132;6.090;2023-03-23T02:17:52;16.88;;;11.68;;
54699;SDS011;40599;53.132;6.090;2023-03-23T02:20:17;17.42;;;12.25;;
54699;SDS011;40599;53.132;6.090;2023-03-23T02:35:54;17.63;;;10.95;;
54699;SDS011;40599;53.132;6.090;2023-03-23T02:38:24;16.42;;;11.73;;
54699;SDS011;40599;53.132;6.090;2023-03-23T02:40:52;15.68;;;10.02;;
54699;SDS011;40599;53.132;6.090;2023-03-23T02:43:21;15.95;;;10.13;;
54699;SDS011;40599;53.132;6.090;2023-03-23T02:45:48;13.27;;;10.93;;
54699;SDS011;40599;53.132;6.090;2023-03-23T02:48:16;14.18;;;10.75;;
54699;SDS011;40599;53.132;6.090;2023-03-23T02:50:44;16.58;;;10.20;;
54699;SDS011;40599;53.132;6.090;2023-03-23T02:53:13;17.27;;;10.15;;
54699;SDS011;40599;53.132;6.090;2023-03-23T02:55:40;15.63;;;9.50;;
54699;SDS011;40599;53.132;6.090;2023-03-23T02:58:10;18.45;;;11.80;;
54699;SDS011;40599;53.132;6.090;2023-03-23T03:00:37;13.82;;;9.27;;
54699;SDS011;40599;53.132;6.090;2023-03-23T03:03:04;13.00;;;9.73;;
54699;SDS011;40599;53.132;6.090;2023-03-23T03:05:38;19.80;;;9.85;;
54699;SDS011;40599;53.132;6.090;2023-03-23T03:21:14;14.07;;;9.02;;
54699;SDS011;40599;53.132;6.090;2023-03-23T03:23:45;15.73;;;9.05;;
54699;SDS011;40599;53.132;6.090;2023-03-23T03:26:14;10.95;;;9.10;;
54699;SDS011;40599;53.132;6.090;2023-03-23T03:28:46;14.63;;;9.60;;
54699;SDS011;40599;53.132;6.090;2023-03-23T03:31:17;15.45;;;9.07;;
54699;SDS011;40599;53.132;6.090;2023-03-23T03:33:44;13.98;;;9.10;;
54699;SDS011;40599;53.132;6.090;2023-03-23T03:36:14;11.82;;;8.73;;
54699;SDS011;40599;53.132;6.090;2023-03-23T03:38:42;15.93;;;8.90;;
54699;SDS011;40599;53.132;6.090;2023-03-23T03:41:09;11.68;;;8.77;;
54699;SDS011;40599;53.132;6.090;2023-03-23T03:43:35;13.77;;;8.00;;
54699;SDS011;40599;53.132;6.090;2023-03-23T03:46:01;16.58;;;9.10;;
54699;SDS011;40599;53.132;6.090;2023-03-23T03:48:28;13.77;;;8.43;;
54699;SDS011;40599;53.132;6.090;2023-03-23T03:50:54;12.18;;;8.15;;
54699;SDS011;40599;53.132;6.090;2023-03-23T03:53:22;16.65;;;9.38;;
54699;SDS011;40599;53.132;6.090;2023-03-23T03:58:15;13.02;;;7.95;;
54699;SDS011;40599;53.132;6.090;2023-03-23T04:00:41;12.27;;;8.30;;
54699;SDS011;40599;53.132;6.090;2023-03-23T04:03:08;8.73;;;6.97;;
54699;SDS011;40599;53.132;6.090;2023-03-23T04:05:34;10.15;;;6.63;;
54699;SDS011;40599;53.132;6.090;2023-03-23T04:08:02;11.63;;;7.25;;
54699;SDS011;40599;53.132;6.090;2023-03-23T04:10:29;7.05;;;6.32;;
54699;SDS011;40599;53.132;6.090;2023-03-23T04:15:21;8.73;;;6.20;;
54699;SDS011;40599;53.132;6.090;2023-03-23T04:17:48;8.82;;;6.40;;
54699;SDS011;40599;53.132;6.090;2023-03-23T04:20:15;13.57;;;8.33;;
54699;SDS011;40599;53.132;6.090;2023-03-23T04:22:43;10.02;;;6.47;;
54699;SDS011;40599;53.132;6.090;2023-03-23T04:27:37;11.27;;;6.78;;
54699;SDS011;40599;53.132;6.090;2023-03-23T04:30:03;11.50;;;6.43;;
54699;SDS011;40599;53.132;6.090;2023-03-23T04:32:30;12.23;;;6.35;;
54699;SDS011;40599;53.132;6.090;2023-03-23T04:34:56;12.35;;;6.70;;
54699;SDS011;40599;53.132;6.090;2023-03-23T04:37:28;15.30;;;6.70;;
54699;SDS011;40599;53.132;6.090;2023-03-23T04:39:58;10.05;;;6.20;;
54699;SDS011;40599;53.132;6.090;2023-03-23T04:42:37;15.30;;;8.30;;
54699;SDS011;40599;53.132;6.090;2023-03-23T04:45:03;10.05;;;6.95;;
54699;SDS011;40599;53.132;6.090;2023-03-23T04:47:34;12.00;;;6.25;;
54699;SDS011;40599;53.132;6.090;2023-03-23T04:50:08;11.02;;;5.70;;
54699;SDS011;40599;53.132;6.090;2023-03-23T04:52:35;16.67;;;6.18;;
54699;SDS011;40599;53.132;6.090;2023-03-23T04:55:03;12.65;;;6.13;;
54699;SDS011;40599;53.132;6.090;2023-03-23T04:57:30;17.77;;;7.03;;
54699;SDS011;40599;53.132;6.090;2023-03-23T04:59:57;12.93;;;6.45;;
54699;SDS011;40599;53.132;6.090;2023-03-23T05:02:23;18.05;;;7.13;;
54699;SDS011;40599;53.132;6.090;2023-03-23T05:07:16;14.20;;;7.20;;
54699;SDS011;40599;53.132;6.090;2023-03-23T05:09:46;17.83;;;6.82;;
54699;SDS011;40599;53.132;6.090;2023-03-23T05:12:12;15.30;;;8.02;;
54699;SDS011;40599;53.132;6.090;2023-03-23T05:14:41;25.20;;;8.20;;
54699;SDS011;40599;53.132;6.090;2023-03-23T05:17:08;18.38;;;7.70;;
54699;SDS011;40599;53.132;6.090;2023-03-23T05:19:34;22.88;;;7.38;;
54699;SDS011;40599;53.132;6.090;2023-03-23T05:22:01;19.23;;;7.25;;
54699;SDS011;40599;53.132;6.090;2023-03-23T05:24:30;23.50;;;7.97;;
54699;SDS011;40599;53.132;6.090;2023-03-23T05:26:58;22.20;;;7.43;;
54699;SDS011;40599;53.132;6.090;2023-03-23T05:29:24;19.70;;;7.10;;
54699;SDS011;40599;53.132;6.090;2023-03-23T05:31:51;25.08;;;7.68;;
54699;SDS011;40599;53.132;6.090;2023-03-23T05:34:18;26.05;;;7.20;;
54699;SDS011;40599;53.132;6.090;2023-03-23T05:36:45;27.08;;;7.82;;
54699;SDS011;40599;53.132;6.090;2023-03-23T05:39:12;31.50;;;8.43;;
54699;SDS011;40599;53.132;6.090;2023-03-23T05:41:41;30.48;;;9.43;;
54699;SDS011;40599;53.132;6.090;2023-03-23T05:44:07;33.17;;;8.13;;
54699;SDS011;40599;53.132;6.090;2023-03-23T05:46:34;26.35;;;7.45;;
54699;SDS011;40599;53.132;6.090;2023-03-23T05:49:00;24.50;;;7.95;;
54699;SDS011;40599;53.132;6.090;2023-03-23T05:51:27;33.15;;;8.15;;
54699;SDS011;40599;53.132;6.090;2023-03-23T05:53:53;26.30;;;7.57;;
54699;SDS011;40599;53.132;6.090;2023-03-23T05:56:19;34.15;;;9.13;;
54699;SDS011;40599;53.132;6.090;2023-03-23T05:58:46;27.50;;;7.63;;
54699;SDS011;40599;53.132;6.090;2023-03-23T06:01:12;31.60;;;8.75;;
54699;SDS011;40599;53.132;6.090;2023-03-23T06:03:41;28.92;;;8.23;;
54699;SDS011;40599;53.132;6.090;2023-03-23T06:06:09;29.52;;;8.38;;
54699;SDS011;40599;53.132;6.090;2023-03-23T06:08:36;31.98;;;9.18;;
54699;SDS011;40599;53.132;6.090;2023-03-23T06:11:03;21.58;;;7.63;;
54699;SDS011;40599;53.132;6.090;2023-03-23T06:13:29;20.95;;;8.52;;
54699;SDS011;40599;53.132;6.090;2023-03-23T06:15:56;14.40;;;5.82;;
54699;SDS011;40599;53.132;6.090;2023-03-23T06:18:22;13.25;;;5.18;;
54699;SDS011;40599;53.132;6.090;2023-03-23T06:20:49;15.60;;;5.68;;
54699;SDS011;40599;53.132;6.090;2023-03-23T06:23:15;13.65;;;6.30;;
54699;SDS011;40599;53.132;6.090;2023-03-23T06:25:42;12.32;;;5.78;;
54699;SDS011;40599;53.132;6.090;2023-03-23T06:28:09;18.08;;;6.10;;
54699;SDS011;40599;53.132;6.090;2023-03-23T06:30:38;15.68;;;5.60;;
54699;SDS011;40599;53.132;6.090;2023-03-23T06:33:05;20.35;;;6.65;;
54699;SDS011;40599;53.132;6.090;2023-03-23T06:35:34;13.40;;;6.32;;
54699;SDS011;40599;53.132;6.090;2023-03-23T06:38:00;21.67;;;6.45;;
54699;SDS011;40599;53.132;6.090;2023-03-23T06:40:27;18.13;;;6.40;;
54699;SDS011;40599;53.132;6.090;2023-03-23T06:42:54;19.25;;;5.90;;
54699;SDS011;40599;53.132;6.090;2023-03-23T06:45:20;13.02;;;6.35;;
54699;SDS011;40599;53.132;6.090;2023-03-23T06:47:46;17.35;;;5.70;;
54699;SDS011;40599;53.132;6.090;2023-03-23T06:50:16;19.50;;;6.65;;
54699;SDS011;40599;53.132;6.090;2023-03-23T06:52:49;21.40;;;7.10;;
54699;SDS011;40599;53.132;6.090;2023-03-23T06:55:16;20.95;;;6.70;;
54699;SDS011;40599;53.132;6.090;2023-03-23T06:57:43;28.23;;;8.10;;
54699;SDS011;40599;53.132;6.090;2023-03-23T07:00:10;23.35;;;7.00;;
54699;SDS011;40599;53.132;6.090;2023-03-23T07:02:39;30.77;;;8.18;;
54699;SDS011;40599;53.132;6.090;2023-03-23T07:05:05;30.83;;;7.53;;
54699;SDS011;40599;53.132;6.090;2023-03-23T07:07:32;26.13;;;7.70;;
54699;SDS011;40599;53.132;6.090;2023-03-23T07:09:58;27.75;;;8.15;;
54699;SDS011;40599;53.132;6.090;2023-03-23T07:12:24;30.60;;;7.47;;
54699;SDS011;40599;53.132;6.090;2023-03-23T07:14:52;31.60;;;7.70;;
54699;SDS011;40599;53.132;6.090;2023-03-23T07:17:18;42.63;;;8.77;;
54699;SDS011;40599;53.132;6.090;2023-03-23T07:19:44;35.75;;;7.50;;
54699;SDS011;40599;53.132;6.090;2023-03-23T07:22:11;38.25;;;8.00;;
54699;SDS011;40599;53.132;6.090;2023-03-23T07:24:37;36.45;;;8.23;;
54699;SDS011;40599;53.132;6.090;2023-03-23T07:27:03;25.10;;;7.30;;
54699;SDS011;40599;53.132;6.090;2023-03-23T07:29:30;37.70;;;8.95;;
54699;SDS011;40599;53.132;6.090;2023-03-23T07:32:00;40.67;;;9.13;;
54699;SDS011;40599;53.132;6.090;2023-03-23T07:34:26;35.92;;;9.38;;
54699;SDS011;40599;53.132;6.090;2023-03-23T07:36:53;28.77;;;8.23;;
54699;SDS011;40599;53.132;6.090;2023-03-23T07:39:19;36.67;;;8.32;;
54699;SDS011;40599;53.132;6.090;2023-03-23T07:41:45;37.53;;;9.15;;
54699;SDS011;40599;53.132;6.090;2023-03-23T07:44:11;38.33;;;8.38;;
54699;SDS011;40599;53.132;6.090;2023-03-23T07:46:37;50.08;;;9.63;;
54699;SDS011;40599;53.132;6.090;2023-03-23T07:49:04;38.85;;;8.57;;
54699;SDS011;40599;53.132;6.090;2023-03-23T07:51:31;30.65;;;8.45;;
54699;SDS011;40599;53.132;6.090;2023-03-23T07:53:57;40.22;;;9.48;;
54699;SDS011;40599;53.132;6.090;2023-03-23T07:56:24;39.97;;;9.27;;
54699;SDS011;40599;53.132;6.090;2023-03-23T07:58:51;38.45;;;8.38;;
54699;SDS011;40599;53.132;6.090;2023-03-23T08:01:17;37.65;;;9.40;;
54699;SDS011;40599;53.132;6.090;2023-03-23T08:03:43;44.38;;;9.32;;
54699;SDS011;40599;53.132;6.090;2023-03-23T08:06:09;38.33;;;8.93;;
54699;SDS011;40599;53.132;6.090;2023-03-23T08:08:35;35.33;;;8.43;;
54699;SDS011;40599;53.132;6.090;2023-03-23T08:11:02;32.72;;;8.55;;
54699;SDS011;40599;53.132;6.090;2023-03-23T08:13:28;33.78;;;8.73;;
54699;SDS011;40599;53.132;6.090;2023-03-23T08:15:55;31.77;;;8.18;;
54699;SDS011;40599;53.132;6.090;2023-03-23T08:18:22;30.13;;;8.05;;
54699;SDS011;40599;53.132;6.090;2023-03-23T08:20:48;31.35;;;8.10;;
54699;SDS011;40599;53.132;6.090;2023-03-23T08:23:15;32.25;;;8.43;;
54699;SDS011;40599;53.132;6.090;2023-03-23T08:25:41;42.20;;;8.85;;
54699;SDS011;40599;53.132;6.090;2023-03-23T08:28:08;35.35;;;8.18;;
54699;SDS011;40599;53.132;6.090;2023-03-23T08:30:34;34.70;;;8.88;;
54699;SDS011;40599;53.132;6.090;2023-03-23T08:33:02;34.22;;;7.63;;
54699;SDS011;40599;53.132;6.090;2023-03-23T08:35:30;32.57;;;8.30;;
54699;SDS011;40599;53.132;6.090;2023-03-23T08:37:56;36.17;;;8.45;;
54699;SDS011;40599;53.132;6.090;2023-03-23T08:40:22;47.80;;;9.38;;
54699;SDS011;40599;53.132;6.090;2023-03-23T08:42:49;42.92;;;9.48;;
54699;SDS011;40599;53.132;6.090;2023-03-23T08:45:17;36.33;;;9.13;;
54699;SDS011;40599;53.132;6.090;2023-03-23T08:47:44;39.10;;;9.18;;
54699;SDS011;40599;53.132;6.090;2023-03-23T08:50:12;32.80;;;8.93;;
54699;SDS011;40599;53.132;6.090;2023-03-23T08:52:39;40.50;;;9.50;;
54699;SDS011;40599;53.132;6.090;2023-03-23T08:55:06;34.08;;;8.77;;
54699;SDS011;40599;53.132;6.090;2023-03-23T08:57:34;36.03;;;8.88;;
54699;SDS011;40599;53.132;6.090;2023-03-23T09:00:01;36.67;;;8.68;;
54699;SDS011;40599;53.132;6.090;2023-03-23T09:02:38;40.72;;;9.23;;
54699;SDS011;40599;53.132;6.090;2023-03-23T09:05:04;41.58;;;8.20;;
54699;SDS011;40599;53.132;6.090;2023-03-23T09:07:30;34.40;;;8.32;;
54699;SDS011;40599;53.132;6.090;2023-03-23T09:09:57;38.40;;;8.13;;
54699;SDS011;40599;53.132;6.090;2023-03-23T09:12:24;32.22;;;8.80;;
54699;SDS011;40599;53.132;6.090;2023-03-23T09:17:17;33.58;;;7.70;;
54699;SDS011;40599;53.132;6.090;2023-03-23T09:19:43;35.92;;;7.53;;
54699;SDS011;40599;53.132;6.090;2023-03-23T09:22:09;34.80;;;7.25;;
54699;SDS011;40599;53.132;6.090;2023-03-23T09:24:36;34.25;;;7.68;;
54699;SDS011;40599;53.132;6.090;2023-03-23T09:27:03;36.47;;;7.93;;
54699;SDS011;40599;53.132;6.090;2023-03-23T09:29:29;40.83;;;8.32;;
54699;SDS011;40599;53.132;6.090;2023-03-23T09:31:55;41.28;;;8.32;;
54699;SDS011;40599;53.132;6.090;2023-03-23T09:34:22;37.92;;;7.82;;
54699;SDS011;40599;53.132;6.090;2023-03-23T09:36:48;30.95;;;7.25;;
54699;SDS011;40599;53.132;6.090;2023-03-23T09:39:15;40.67;;;8.35;;
54699;SDS011;40599;53.132;6.090;2023-03-23T09:41:49;41.28;;;7.68;;
54699;SDS011;40599;53.132;6.090;2023-03-23T09:46:54;31.30;;;7.13;;
54699;SDS011;40599;53.132;6.090;2023-03-23T09:50:12;35.58;;;7.68;;
54699;SDS011;40599;53.132;6.090;2023-03-23T09:52:13;33.67;;;7.53;;
54699;SDS011;40599;53.132;6.090;2023-03-23T09:54:43;23.77;;;6.63;;
54699;SDS011;40599;53.132;6.090;2023-03-23T09:57:13;39.13;;;7.40;;
54699;SDS011;40599;53.132;6.090;2023-03-23T10:02:18;26.67;;;6.65;;
54699;SDS011;40599;53.132;6.090;2023-03-23T10:04:49;29.25;;;7.25;;
54699;SDS011;40599;53.132;6.090;2023-03-23T10:07:18;31.23;;;8.05;;
54699;SDS011;40599;53.132;6.090;2023-03-23T10:09:45;37.38;;;6.90;;
54699;SDS011;40599;53.132;6.090;2023-03-23T10:12:19;31.92;;;7.28;;
54699;SDS011;40599;53.132;6.090;2023-03-23T10:20:21;39.80;;;7.93;;
54699;SDS011;40599;53.132;6.090;2023-03-23T10:25:36;29.65;;;7.55;;
54699;SDS011;40599;53.132;6.090;2023-03-23T10:28:05;29.88;;;7.07;;
54699;SDS011;40599;53.132;6.090;2023-03-23T10:33:09;27.10;;;7.15;;
54699;SDS011;40599;53.132;6.090;2023-03-23T10:35:38;23.15;;;5.53;;
54699;SDS011;40599;53.132;6.090;2023-03-23T10:38:13;26.58;;;6.93;;
54699;SDS011;40599;53.132;6.090;2023-03-23T10:43:37;34.28;;;7.60;;
54699;SDS011;40599;53.132;6.090;2023-03-23T10:46:12;30.13;;;6.53;;
54699;SDS011;40599;53.132;6.090;2023-03-23T10:48:41;25.48;;;6.72;;
54699;SDS011;40599;53.132;6.090;2023-03-23T10:51:10;26.77;;;7.18;;
54699;SDS011;40599;53.132;6.090;2023-03-23T10:53:44;24.60;;;6.53;;
54699;SDS011;40599;53.132;6.090;2023-03-23T10:56:23;27.17;;;6.45;;
54699;SDS011;40599;53.132;6.090;2023-03-23T10:58:49;19.48;;;5.70;;
54699;SDS011;40599;53.132;6.090;2023-03-23T11:03:44;20.48;;;6.25;;
54699;SDS011;40599;53.132;6.090;2023-03-23T11:06:19;27.02;;;5.90;;
54699;SDS011;40599;53.132;6.090;2023-03-23T11:08:52;30.20;;;6.43;;
54699;SDS011;40599;53.132;6.090;2023-03-23T11:11:26;27.53;;;6.40;;
54699;SDS011;40599;53.132;6.090;2023-03-23T11:13:57;22.10;;;5.90;;
54699;SDS011;40599;53.132;6.090;2023-03-23T11:16:28;26.30;;;6.47;;
54699;SDS011;40599;53.132;6.090;2023-03-23T11:18:56;24.37;;;6.30;;
54699;SDS011;40599;53.132;6.090;2023-03-23T11:21:23;20.63;;;6.30;;
54699;SDS011;40599;53.132;6.090;2023-03-23T11:23:51;33.67;;;6.93;;
54699;SDS011;40599;53.132;6.090;2023-03-23T11:26:23;25.17;;;6.03;;
54699;SDS011;40599;53.132;6.090;2023-03-23T11:28:58;28.57;;;7.43;;
54699;SDS011;40599;53.132;6.090;2023-03-23T11:31:30;25.20;;;6.27;;
54699;SDS011;40599;53.132;6.090;2023-03-23T11:33:58;22.83;;;6.00;;
54699;SDS011;40599;53.132;6.090;2023-03-23T11:37:09;20.40;;;5.90;;
54699;SDS011;40599;53.132;6.090;2023-03-23T11:39:45;21.43;;;5.87;;
54699;SDS011;40599;53.132;6.090;2023-03-23T11:42:12;21.27;;;5.83;;
54699;SDS011;40599;53.132;6.090;2023-03-23T11:44:43;21.73;;;6.30;;
54699;SDS011;40599;53.132;6.090;2023-03-23T11:47:27;19.70;;;5.57;;
54699;SDS011;40599;53.132;6.090;2023-03-23T11:52:43;18.70;;;5.60;;
54699;SDS011;40599;53.132;6.090;2023-03-23T11:58:10;17.60;;;6.10;;
54699;SDS011;40599;53.132;6.090;2023-03-23T12:00:39;18.00;;;6.07;;
54699;SDS011;40599;53.132;6.090;2023-03-23T12:03:29;20.30;;;7.97;;
54699;SDS011;40599;53.132;6.090;2023-03-23T12:06:09;17.93;;;7.47;;
54699;SDS011;40599;53.132;6.090;2023-03-23T12:11:15;21.43;;;6.20;;
54699;SDS011;40599;53.132;6.090;2023-03-23T12:16:39;20.20;;;6.47;;
54699;SDS011;40599;53.132;6.090;2023-03-23T12:22:05;17.03;;;7.27;;
54699;SDS011;40599;53.132;6.090;2023-03-23T12:27:29;22.80;;;7.07;;
54699;SDS011;40599;53.132;6.090;2023-03-23T12:32:50;22.73;;;6.47;;
54699;SDS011;40599;53.132;6.090;2023-03-23T12:42:59;27.87;;;7.10;;
54699;SDS011;40599;53.132;6.090;2023-03-23T12:45:47;16.73;;;5.80;;
54699;SDS011;40599;53.132;6.090;2023-03-23T12:48:20;23.02;;;6.40;;
54699;SDS011;40599;53.132;6.090;2023-03-23T12:53:25;21.43;;;7.67;;
54699;SDS011;40599;53.132;6.090;2023-03-23T12:56:04;18.90;;;7.03;;
54699;SDS011;40599;53.132;6.090;2023-03-23T12:58:34;25.77;;;6.70;;
54699;SDS011;40599;53.132;6.090;2023-03-23T13:08:37;27.60;;;6.18;;
54699;SDS011;40599;53.132;6.090;2023-03-23T13:11:09;25.53;;;7.13;;
54699;SDS011;40599;53.132;6.090;2023-03-23T13:13:53;23.93;;;7.73;;
54699;SDS011;40599;53.132;6.090;2023-03-23T13:23:47;17.97;;;6.20;;
54699;SDS011;40599;53.132;6.090;2023-03-23T13:26:18;19.23;;;7.30;;
54699;SDS011;40599;53.132;6.090;2023-03-23T13:31:32;24.53;;;7.40;;
54699;SDS011;40599;53.132;6.090;2023-03-23T13:34:00;26.80;;;6.63;;
54699;SDS011;40599;53.132;6.090;2023-03-23T13:36:31;27.30;;;6.77;;
54699;SDS011;40599;53.132;6.090;2023-03-23T13:38:59;25.57;;;6.43;;
54699;SDS011;40599;53.132;6.090;2023-03-23T13:41:27;27.83;;;6.80;;
54699;SDS011;40599;53.132;6.090;2023-03-23T13:44:04;25.17;;;9.70;;
54699;SDS011;40599;53.132;6.090;2023-03-23T13:46:30;20.13;;;6.05;;
54699;SDS011;40599;53.132;6.090;2023-03-23T13:56:42;24.23;;;6.47;;
54699;SDS011;40599;53.132;6.090;2023-03-23T13:59:16;23.43;;;6.67;;
54699;SDS011;40599;53.132;6.090;2023-03-23T14:01:43;24.43;;;8.93;;
54699;SDS011;40599;53.132;6.090;2023-03-23T14:04:16;21.67;;;6.03;;
54699;SDS011;40599;53.132;6.090;2023-03-23T14:06:43;17.27;;;6.10;;
54699;SDS011;40599;53.132;6.090;2023-03-23T14:09:12;18.03;;;6.47;;
54699;SDS011;40599;53.132;6.090;2023-03-23T14:11:50;20.03;;;6.37;;
54699;SDS011;40599;53.132;6.090;2023-03-23T14:14:22;21.30;;;7.23;;
54699;SDS011;40599;53.132;6.090;2023-03-23T14:16:50;19.17;;;5.80;;
54699;SDS011;40599;53.132;6.090;2023-03-23T14:19:21;18.10;;;6.30;;
54699;SDS011;40599;53.132;6.090;2023-03-23T14:21:52;19.97;;;7.23;;
54699;SDS011;40599;53.132;6.090;2023-03-23T14:24:20;18.27;;;6.80;;
54699;SDS011;40599;53.132;6.090;2023-03-23T14:26:50;21.33;;;8.00;;
54699;SDS011;40599;53.132;6.090;2023-03-23T14:29:17;20.67;;;10.23;;
54699;SDS011;40599;53.132;6.090;2023-03-23T14:31:44;17.90;;;7.40;;
54699;SDS011;40599;53.132;6.090;2023-03-23T14:34:14;20.13;;;5.53;;
54699;SDS011;40599;53.132;6.090;2023-03-23T14:36:41;18.23;;;7.07;;
54699;SDS011;40599;53.132;6.090;2023-03-23T14:41:34;18.60;;;6.10;;
54699;SDS011;40599;53.132;6.090;2023-03-23T14:46:27;13.50;;;5.70;;
54699;SDS011;40599;53.132;6.090;2023-03-23T14:48:55;16.10;;;6.73;;
54699;SDS011;40599;53.132;6.090;2023-03-23T14:51:22;16.27;;;6.93;;
54699;SDS011;40599;53.132;6.090;2023-03-23T14:53:48;18.98;;;8.52;;
54699;SDS011;40599;53.132;6.090;2023-03-23T14:56:19;20.33;;;6.37;;
54699;SDS011;40599;53.132;6.090;2023-03-23T14:58:51;16.60;;;6.17;;
54699;SDS011;40599;53.132;6.090;2023-03-23T15:01:27;13.47;;;6.50;;
54699;SDS011;40599;53.132;6.090;2023-03-23T15:03:56;18.73;;;5.77;;
54699;SDS011;40599;53.132;6.090;2023-03-23T15:06:25;15.07;;;5.90;;
54699;SDS011;40599;53.132;6.090;2023-03-23T15:08:53;12.57;;;6.67;;
54699;SDS011;40599;53.132;6.090;2023-03-23T15:13:50;21.90;;;7.32;;
54699;SDS011;40599;53.132;6.090;2023-03-23T15:16:53;13.07;;;5.33;;
54699;SDS011;40599;53.132;6.090;2023-03-23T15:19:15;12.37;;;5.00;;
54699;SDS011;40599;53.132;6.090;2023-03-23T15:21:56;15.63;;;7.33;;
54699;SDS011;40599;53.132;6.090;2023-03-23T15:24:33;13.30;;;5.90;;
54699;SDS011;40599;53.132;6.090;2023-03-23T15:29:32;14.00;;;5.70;;
54699;SDS011;40599;53.132;6.090;2023-03-23T15:31:58;17.83;;;5.28;;
54699;SDS011;40599;53.132;6.090;2023-03-23T15:37:02;19.67;;;6.35;;
54699;SDS011;40599;53.132;6.090;2023-03-23T15:39:29;21.37;;;6.80;;
54699;SDS011;40599;53.132;6.090;2023-03-23T15:44:26;24.63;;;6.17;;
54699;SDS011;40599;53.132;6.090;2023-03-23T15:46:53;22.97;;;6.70;;
54699;SDS011;40599;53.132;6.090;2023-03-23T15:49:27;27.47;;;9.27;;
54699;SDS011;40599;53.132;6.090;2023-03-23T15:51:54;27.50;;;7.03;;
54699;SDS011;40599;53.132;6.090;2023-03-23T15:54:20;20.88;;;6.80;;
54699;SDS011;40599;53.132;6.090;2023-03-23T15:56:46;22.98;;;7.15;;
54699;SDS011;40599;53.132;6.090;2023-03-23T15:59:12;26.95;;;7.88;;
54699;SDS011;40599;53.132;6.090;2023-03-23T16:01:39;26.10;;;6.43;;
54699;SDS011;40599;53.132;6.090;2023-03-23T16:06:32;23.95;;;7.75;;
54699;SDS011;40599;53.132;6.090;2023-03-23T16:08:59;24.57;;;10.23;;
54699;SDS011;40599;53.132;6.090;2023-03-23T16:11:26;18.13;;;5.93;;
54699;SDS011;40599;53.132;6.090;2023-03-23T16:13:52;20.13;;;6.67;;
54699;SDS011;40599;53.132;6.090;2023-03-23T16:16:23;24.08;;;7.10;;
54699;SDS011;40599;53.132;6.090;2023-03-23T16:18:51;22.40;;;6.63;;
54699;SDS011;40599;53.132;6.090;2023-03-23T16:21:17;23.42;;;7.28;;
54699;SDS011;40599;53.132;6.090;2023-03-23T16:23:43;22.83;;;6.60;;
54699;SDS011;40599;53.132;6.090;2023-03-23T16:26:10;20.07;;;6.30;;
54699;SDS011;40599;53.132;6.090;2023-03-23T16:28:37;26.42;;;6.18;;
54699;SDS011;40599;53.132;6.090;2023-03-23T16:31:03;21.42;;;6.55;;
54699;SDS011;40599;53.132;6.090;2023-03-23T16:33:30;22.95;;;6.15;;
54699;SDS011;40599;53.132;6.090;2023-03-23T16:35:56;23.67;;;6.15;;
54699;SDS011;40599;53.132;6.090;2023-03-23T16:38:22;21.67;;;5.82;;
54699;SDS011;40599;53.132;6.090;2023-03-23T16:40:49;18.55;;;5.85;;
54699;SDS011;40599;53.132;6.090;2023-03-23T16:43:15;22.67;;;6.38;;
54699;SDS011;40599;53.132;6.090;2023-03-23T16:45:42;21.73;;;5.50;;
54699;SDS011;40599;53.132;6.090;2023-03-23T16:48:09;20.77;;;7.00;;
54699;SDS011;40599;53.132;6.090;2023-03-23T16:50:36;22.63;;;6.10;;
54699;SDS011;40599;53.132;6.090;2023-03-23T16:53:03;17.90;;;6.10;;
54699;SDS011;40599;53.132;6.090;2023-03-23T16:57:56;29.10;;;6.47;;
54699;SDS011;40599;53.132;6.090;2023-03-23T17:00:22;23.08;;;6.22;;
54699;SDS011;40599;53.132;6.090;2023-03-23T17:02:50;22.30;;;6.33;;
54699;SDS011;40599;53.132;6.090;2023-03-23T17:05:20;24.65;;;5.78;;